Time;durP1;ratioP1;P1;durP2;ratioP2;P2;SDS_P1;SDS_P2;PMS_P1;PMS_P2;Temp;Humidity;BMP_temperature;BMP_pressure;BME280_temperature;BME280_humidity;BME280_pressure;Samples;Min_cycle;Max_cycle;Signal;HPM_P1;HPM_P2
2022/05/31 00:00:08;;;;;;;12.57;6.50;;;;;;;;;;5049216;28;19972;-65
2022/05/31 00:02:34;;;;;;;;;;;;;;;;;;5049821;28;20101;-66
2022/05/31 00:05:00;;;;;;;12.75;6.70;;;;;;;;;;5049516;28;19926;-65
2022/05/31 00:07:26;;;;;;;11.93;6.20;;;;;;;;;;5049358;28;20067;-66
2022/05/31 00:09:52;;;;;;;14.48;6.45;;;;;;;;;;5049150;28;20045;-66
2022/05/31 00:12:19;;;;;;;12.25;6.07;;;;;;;;;;5047689;28;20045;-66
2022/05/31 00:14:45;;;;;;;11.38;5.95;;;;;;;;;;5049248;28;20456;-65
2022/05/31 00:17:11;;;;;;;11.15;5.97;;;;;;;;;;5049272;28;20063;-65
2022/05/31 00:19:37;;;;;;;10.68;5.53;;;;;;;;;;5048655;28;20518;-65
2022/05/31 00:22:03;;;;;;;12.15;6.38;;;;;;;;;;5049131;28;20143;-66
2022/05/31 00:24:29;;;;;;;11.40;5.80;;;;;;;;;;5048945;28;20159;-66
2022/05/31 00:26:55;;;;;;;10.23;5.55;;;;;;;;;;5048733;28;20059;-65
2022/05/31 00:29:21;;;;;;;13.90;6.03;;;;;;;;;;5048950;28;20048;-65
2022/05/31 00:31:48;;;;;;;10.88;6.10;;;;;;;;;;5048831;28;20056;-65
2022/05/31 00:34:15;;;;;;;11.35;5.43;;;;;;;;;;5049081;28;20064;-65
2022/05/31 00:36:42;;;;;;;13.20;5.95;;;;;;;;;;5047415;28;20093;-65
2022/05/31 00:39:08;;;;;;;11.38;5.68;;;;;;;;;;5047297;28;20069;-65
2022/05/31 00:41:35;;;;;;;13.50;6.18;;;;;;;;;;5048912;28;20045;-65
2022/05/31 00:44:01;;;;;;;;;;;;;;;;;;5049451;28;20126;-65
2022/05/31 00:46:31;;;;;;;13.48;5.78;;;;;;;;;;5048866;28;19932;-65
2022/05/31 00:48:58;;;;;;;12.05;5.82;;;;;;;;;;5047509;28;20049;-65
2022/05/31 00:51:29;;;;;;;12.10;5.70;;;;;;;;;;5048701;28;20104;-65
2022/05/31 00:54:01;;;;;;;11.98;5.90;;;;;;;;;;5048816;28;20138;-65
2022/05/31 00:56:28;;;;;;;11.65;5.78;;;;;;;;;;5046992;28;20041;-65
2022/05/31 00:59:09;;;;;;;13.80;6.32;;;;;;;;;;5048557;28;20064;-65
2022/05/31 01:01:36;;;;;;;11.48;5.60;;;;;;;;;;5048283;28;20044;-65
2022/05/31 01:04:03;;;;;;;11.25;6.07;;;;;;;;;;5048616;28;20106;-65
2022/05/31 01:06:29;;;;;;;11.68;5.78;;;;;;;;;;5047995;28;20132;-65
2022/05/31 01:08:55;;;;;;;;;;;;;;;;;;5048800;28;20061;-66
2022/05/31 01:11:23;;;;;;;11.63;5.80;;;;;;;;;;5048205;28;19958;-65
2022/05/31 01:13:49;;;;;;;13.02;6.57;;;;;;;;;;5048207;28;20450;-65
2022/05/31 01:16:15;;;;;;;13.55;6.15;;;;;;;;;;5048193;28;20045;-65
2022/05/31 01:18:42;;;;;;;13.27;6.50;;;;;;;;;;5048308;28;20059;-65
2022/05/31 01:21:08;;;;;;;11.43;6.20;;;;;;;;;;5048180;28;20100;-65
2022/05/31 01:23:50;;;;;;;11.55;6.63;;;;;;;;;;5047922;28;20063;-65
2022/05/31 01:26:32;;;;;;;13.05;6.38;;;;;;;;;;5048228;28;20053;-65
2022/05/31 01:29:01;;;;;;;11.40;6.22;;;;;;;;;;5048144;28;20166;-65
2022/05/31 01:31:30;;;;;;;11.95;6.05;;;;;;;;;;5047793;28;20429;-66
2022/05/31 01:34:18;;;;;;;11.50;5.97;;;;;;;;;;5047842;28;20487;-65
2022/05/31 01:36:49;;;;;;;11.20;5.72;;;;;;;;;;5048147;28;20323;-65
2022/05/31 01:39:29;;;;;;;13.32;6.68;;;;;;;;;;5046990;28;20393;-65
2022/05/31 01:42:03;;;;;;;12.02;5.82;;;;;;;;;;5047579;28;20501;-66
2022/05/31 01:44:32;;;;;;;12.05;6.13;;;;;;;;;;5047758;28;20135;-67
2022/05/31 01:47:00;;;;;;;14.55;6.30;;;;;;;;;;5046670;28;20338;-66
2022/05/31 01:49:30;;;;;;;15.93;6.30;;;;;;;;;;5047974;28;20257;-65
2022/05/31 01:51:56;;;;;;;12.85;6.68;;;;;;;;;;5047147;28;20053;-65
2022/05/31 01:54:22;;;;;;;;;;;;;;;;;;5046908;28;20141;-65
2022/05/31 01:56:51;;;;;;;11.43;6.03;;;;;;;;;;5047971;28;20015;-65
2022/05/31 01:59:18;;;;;;;12.70;6.50;;;;;;;;;;5048069;28;20396;-65
2022/05/31 02:01:45;;;;;;;15.55;7.03;;;;;;;;;;5047675;28;20105;-66
2022/05/31 02:04:14;;;;;;;12.00;6.20;;;;;;;;;;5047787;28;20053;-65
2022/05/31 02:06:40;;;;;;;11.10;5.78;;;;;;;;;;5047392;28;20095;-65
2022/05/31 02:09:08;;;;;;;12.15;5.93;;;;;;;;;;5047571;28;20041;-67
2022/05/31 02:11:34;;;;;;;11.60;6.40;;;;;;;;;;5047686;28;20214;-65
2022/05/31 02:14:01;;;;;;;13.20;6.70;;;;;;;;;;5047471;28;20060;-65
2022/05/31 02:16:27;;;;;;;;;;;;;;;;;;5047894;28;20123;-65
2022/05/31 02:21:37;;;;;;;13.00;6.38;;;;;;;;;;5051086;28;20131;-65
2022/05/31 02:24:11;;;;;;;11.07;5.80;;;;;;;;;;5050892;28;20049;-65
2022/05/31 02:26:41;;;;;;;12.75;6.28;;;;;;;;;;5051138;28;20353;-65
2022/05/31 02:29:08;;;;;;;12.27;6.07;;;;;;;;;;5051132;28;20157;-66
2022/05/31 02:31:34;;;;;;;14.13;5.93;;;;;;;;;;5050649;28;20045;-65
2022/05/31 02:34:00;;;;;;;12.45;5.95;;;;;;;;;;5050543;28;20514;-65
2022/05/31 02:36:26;;;;;;;15.27;6.55;;;;;;;;;;5050875;28;20120;-65
2022/05/31 02:38:53;;;;;;;13.40;6.43;;;;;;;;;;5050864;28;20059;-65
2022/05/31 02:41:19;;;;;;;;;;;;;;;;;;5051103;28;20044;-65
2022/05/31 02:43:45;;;;;;;11.85;6.25;;;;;;;;;;5051020;28;19972;-65
2022/05/31 02:46:12;;;;;;;11.65;5.90;;;;;;;;;;5050959;28;20138;-65
2022/05/31 02:48:38;;;;;;;12.85;5.90;;;;;;;;;;5051103;28;20365;-64
2022/05/31 02:51:04;;;;;;;11.70;5.65;;;;;;;;;;5050867;28;20483;-65
2022/05/31 02:53:30;;;;;;;11.07;5.70;;;;;;;;;;5051038;28;20121;-65
2022/05/31 02:55:57;;;;;;;12.23;5.72;;;;;;;;;;5050889;28;20123;-65
2022/05/31 02:58:24;;;;;;;13.05;5.88;;;;;;;;;;5050724;28;20045;-65
2022/05/31 03:00:50;;;;;;;12.15;5.78;;;;;;;;;;5050434;28;20465;-65
2022/05/31 03:03:16;;;;;;;10.98;5.47;;;;;;;;;;5048472;28;20037;-65
2022/05/31 03:05:42;;;;;;;11.88;5.45;;;;;;;;;;5050357;28;20057;-65
2022/05/31 03:08:09;;;;;;;10.93;5.38;;;;;;;;;;5050268;28;20107;-65
2022/05/31 03:10:37;;;;;;;11.68;6.20;;;;;;;;;;5048917;28;20110;-65
2022/05/31 03:13:03;;;;;;;13.55;5.72;;;;;;;;;;5050278;28;20076;-65
2022/05/31 03:15:31;;;;;;;13.85;6.38;;;;;;;;;;5049775;28;20048;-65
2022/05/31 03:18:01;;;;;;;14.30;5.97;;;;;;;;;;5050049;28;20476;-65
2022/05/31 03:20:31;;;;;;;14.30;6.43;;;;;;;;;;5049715;28;20537;-65
2022/05/31 03:23:05;;;;;;;14.07;6.63;;;;;;;;;;5049656;28;20087;-65
2022/05/31 03:25:32;;;;;;;14.70;6.60;;;;;;;;;;5049727;28;20443;-65
2022/05/31 03:27:58;;;;;;;;;;;;;;;;;;5050012;28;20106;-65
2022/05/31 03:30:24;;;;;;;12.20;6.38;;;;;;;;;;5049324;28;19925;-65
2022/05/31 03:32:51;;;;;;;11.43;6.88;;;;;;;;;;5048392;28;20453;-65
2022/05/31 03:35:17;;;;;;;12.07;6.60;;;;;;;;;;5048570;28;20060;-65
2022/05/31 03:37:43;;;;;;;14.65;7.13;;;;;;;;;;5046890;28;20129;-65
2022/05/31 03:40:09;;;;;;;13.40;7.35;;;;;;;;;;5048677;28;20408;-65
2022/05/31 03:42:35;;;;;;;14.85;7.70;;;;;;;;;;5048435;28;20449;-65
2022/05/31 03:45:02;;;;;;;13.77;7.15;;;;;;;;;;5048222;28;20091;-65
2022/05/31 03:47:28;;;;;;;14.32;7.63;;;;;;;;;;5048196;28;20135;-65
2022/05/31 03:49:54;;;;;;;14.65;7.30;;;;;;;;;;5048530;28;20048;-65
2022/05/31 03:52:20;;;;;;;14.52;8.05;;;;;;;;;;5048110;28;20144;-65
2022/05/31 03:54:46;;;;;;;13.75;8.10;;;;;;;;;;5048433;28;20049;-65
2022/05/31 03:57:16;;;;;;;14.27;8.35;;;;;;;;;;5048591;28;20048;-65
2022/05/31 03:59:42;;;;;;;16.85;8.77;;;;;;;;;;5048007;28;20132;-65
2022/05/31 04:02:08;;;;;;;13.75;8.55;;;;;;;;;;5048477;28;20084;-65
2022/05/31 04:04:35;;;;;;;18.17;8.88;;;;;;;;;;5047718;28;20429;-65
2022/05/31 04:07:01;;;;;;;14.85;9.20;;;;;;;;;;5046690;28;20164;-66
2022/05/31 04:09:27;;;;;;;14.85;9.20;;;;;;;;;;5046633;28;20051;-65
2022/05/31 04:11:56;;;;;;;15.10;8.88;;;;;;;;;;5047953;28;20112;-65
2022/05/31 04:14:22;;;;;;;14.95;9.32;;;;;;;;;;5048420;28;20509;-65
2022/05/31 04:16:49;;;;;;;17.52;8.90;;;;;;;;;;5047456;28;20476;-65
2022/05/31 04:19:15;;;;;;;14.82;8.52;;;;;;;;;;5047929;28;20114;-66
2022/05/31 04:21:41;;;;;;;;;;;;;;;;;;5046481;28;20439;-65
2022/05/31 04:24:12;;;;;;;13.68;7.90;;;;;;;;;;5046160;28;20048;-65
2022/05/31 04:26:39;;;;;;;13.93;8.15;;;;;;;;;;5046197;28;20057;-65
2022/05/31 04:29:05;;;;;;;15.98;8.35;;;;;;;;;;5047340;28;20065;-65
2022/05/31 04:31:31;;;;;;;14.85;7.60;;;;;;;;;;5047440;28;20132;-66
2022/05/31 04:33:57;;;;;;;15.10;7.90;;;;;;;;;;5047214;28;20198;-65
2022/05/31 04:36:23;;;;;;;14.93;8.15;;;;;;;;;;5047451;28;20048;-65
2022/05/31 04:38:50;;;;;;;19.60;7.40;;;;;;;;;;5047161;28;20152;-65
2022/05/31 04:41:20;;;;;;;14.02;7.93;;;;;;;;;;5046114;28;20476;-65
2022/05/31 04:43:46;;;;;;;16.73;7.90;;;;;;;;;;5047285;28;20202;-65
2022/05/31 04:46:14;;;;;;;16.35;8.30;;;;;;;;;;5046901;28;20507;-65
2022/05/31 04:48:40;;;;;;;14.23;7.97;;;;;;;;;;5047034;28;20076;-65
2022/05/31 04:51:06;;;;;;;17.30;8.55;;;;;;;;;;5046862;28;20083;-67
2022/05/31 04:53:32;;;;;;;22.45;8.23;;;;;;;;;;5046516;28;20085;-65
2022/05/31 04:55:58;;;;;;;;;;;;;;;;;;5047285;28;20041;-66
2022/05/31 04:58:24;;;;;;;17.60;8.35;;;;;;;;;;5046823;28;19921;-65
2022/05/31 05:00:50;;;;;;;15.57;8.57;;;;;;;;;;5045592;28;20107;-65
2022/05/31 05:03:16;;;;;;;16.23;7.80;;;;;;;;;;5046760;28;20037;-65
2022/05/31 05:05:42;;;;;;;16.23;9.30;;;;;;;;;;5047117;28;20052;-65
2022/05/31 05:08:08;;;;;;;15.43;8.48;;;;;;;;;;5047041;28;20049;-66
2022/05/31 05:10:34;;;;;;;17.63;9.05;;;;;;;;;;5046528;28;20458;-65
2022/05/31 05:13:00;;;;;;;20.83;8.95;;;;;;;;;;5046982;28;20060;-65
2022/05/31 05:15:26;;;;;;;16.20;9.00;;;;;;;;;;5045702;28;20052;-65
2022/05/31 05:17:53;;;;;;;19.02;10.15;;;;;;;;;;5046548;28;20116;-65
2022/05/31 05:20:19;;;;;;;18.40;9.75;;;;;;;;;;5047351;28;20176;-65
2022/05/31 05:22:45;;;;;;;18.05;9.55;;;;;;;;;;5045087;28;20132;-65
2022/05/31 05:25:11;;;;;;;18.42;9.68;;;;;;;;;;5046690;28;20134;-66
2022/05/31 05:27:37;;;;;;;16.67;10.02;;;;;;;;;;5046528;28;20049;-65
2022/05/31 05:32:48;;;;;;;16.80;9.13;;;;;;;;;;5046454;28;20056;-65
2022/05/31 05:35:14;;;;;;;16.38;9.27;;;;;;;;;;5044815;28;20119;-65
2022/05/31 05:37:40;;;;;;;16.15;9.73;;;;;;;;;;5046432;28;20126;-66
2022/05/31 05:40:07;;;;;;;17.52;9.50;;;;;;;;;;5046509;28;20099;-66
2022/05/31 05:42:33;;;;;;;;;;;;;;;;;;5046639;28;20076;-65
2022/05/31 05:45:00;;;;;;;17.30;9.73;;;;;;;;;;5045201;28;19921;-65
2022/05/31 05:47:26;;;;;;;15.93;9.43;;;;;;;;;;5046978;28;20080;-65
2022/05/31 05:49:53;;;;;;;20.90;10.10;;;;;;;;;;5046520;28;20197;-65
2022/05/31 05:52:19;;;;;;;16.05;8.95;;;;;;;;;;5049455;28;20045;-64
2022/05/31 05:54:45;;;;;;;28.48;9.63;;;;;;;;;;5050547;28;20143;-67
2022/05/31 05:57:11;;;;;;;15.20;9.30;;;;;;;;;;5050206;28;20167;-67
2022/05/31 05:59:37;;;;;;;17.35;9.45;;;;;;;;;;5050794;28;20221;-76
2022/05/31 06:02:10;;;;;;;16.35;9.20;;;;;;;;;;5049993;28;20041;-72
2022/05/31 06:04:47;;;;;;;14.88;8.55;;;;;;;;;;5050472;28;20085;-74
2022/05/31 06:07:13;;;;;;;;;;;;;;;;;;5050476;28;20040;-74
2022/05/31 06:09:41;;;;;;;17.27;9.00;;;;;;;;;;5050101;28;19960;-76
2022/05/31 06:12:10;;;;;;;14.52;8.98;;;;;;;;;;5050069;28;20424;-74
2022/05/31 06:14:41;;;;;;;26.40;13.35;;;;;;;;;;5049840;28;20083;-75
2022/05/31 06:17:12;;;;;;;17.00;10.18;;;;;;;;;;5048449;28;20045;-74
2022/05/31 06:19:38;;;;;;;14.93;9.23;;;;;;;;;;5049836;28;20045;-77
2022/05/31 06:22:05;;;;;;;16.65;9.57;;;;;;;;;;5048264;28;20426;-76
2022/05/31 06:24:33;;;;;;;17.27;9.98;;;;;;;;;;5048214;28;20069;-74
2022/05/31 06:26:59;;;;;;;16.67;9.55;;;;;;;;;;5049277;28;20128;-75
2022/05/31 06:29:27;;;;;;;16.70;9.75;;;;;;;;;;5047969;28;20349;-71
2022/05/31 06:31:54;;;;;;;19.33;9.25;;;;;;;;;;5049674;28;20099;-65
2022/05/31 06:34:20;;;;;;;16.85;9.85;;;;;;;;;;5048911;28;20402;-66
2022/05/31 06:36:46;;;;;;;20.17;10.20;;;;;;;;;;5049299;28;20049;-65
2022/05/31 06:39:12;;;;;;;;;;;;;;;;;;5049899;28;20081;-65
2022/05/31 06:41:38;;;;;;;15.85;9.23;;;;;;;;;;5049048;28;19920;-75
2022/05/31 06:44:05;;;;;;;15.18;8.60;;;;;;;;;;5049115;28;20086;-81
2022/05/31 06:46:31;;;;;;;16.67;9.25;;;;;;;;;;5047863;28;20163;-74
2022/05/31 06:48:57;;;;;;;14.88;9.32;;;;;;;;;;5049448;28;20342;-72
2022/05/31 06:56:55;;;;;;;16.50;8.50;;;;;;;;;;5049376;28;20166;-67
2022/05/31 06:59:21;;;;;;;17.00;7.97;;;;;;;;;;5048885;28;20068;-67
2022/05/31 07:01:48;;;;;;;14.35;7.60;;;;;;;;;;5048641;28;20123;-72
2022/05/31 07:04:14;;;;;;;18.40;8.48;;;;;;;;;;5048055;28;20071;-71
2022/05/31 07:06:41;;;;;;;20.55;8.35;;;;;;;;;;5049133;28;20142;-70
2022/05/31 07:09:07;;;;;;;16.13;8.40;;;;;;;;;;5048868;28;20082;-65
2022/05/31 07:11:33;;;;;;;23.77;9.27;;;;;;;;;;5049289;28;20179;-74
2022/05/31 07:14:01;;;;;;;17.25;8.63;;;;;;;;;;5048688;28;20063;-80
2022/05/31 07:16:27;;;;;;;14.98;7.95;;;;;;;;;;5048877;28;20052;-71
2022/05/31 07:18:53;;;;;;;17.05;8.30;;;;;;;;;;5046844;28;20116;-68
2022/05/31 07:21:19;;;;;;;17.10;8.93;;;;;;;;;;5048635;28;20045;-71
2022/05/31 07:23:45;;;;;;;16.30;6.93;;;;;;;;;;5049851;28;20231;-75
2022/05/31 07:26:12;;;;;;;15.02;7.80;;;;;;;;;;5048783;28;20048;-70
2022/05/31 07:28:39;;;;;;;14.60;7.25;;;;;;;;;;5048371;28;20053;-68
2022/05/31 07:31:05;;;;;;;16.02;7.25;;;;;;;;;;5046899;28;20071;-70
2022/05/31 07:33:31;;;;;;;20.60;7.90;;;;;;;;;;5049191;28;20057;-75
2022/05/31 07:35:58;;;;;;;18.45;7.55;;;;;;;;;;5048154;28;20064;-69
2022/05/31 07:38:26;;;;;;;14.10;6.72;;;;;;;;;;5048106;28;20535;-70
2022/05/31 07:40:53;;;;;;;15.15;7.35;;;;;;;;;;5048136;28;20148;-68
2022/05/31 07:43:19;;;;;;;16.23;7.20;;;;;;;;;;5047359;28;20092;-67
2022/05/31 07:45:45;;;;;;;19.25;8.43;;;;;;;;;;5048185;28;20121;-67
2022/05/31 07:48:11;;;;;;;14.93;7.78;;;;;;;;;;5047822;28;20162;-65
2022/05/31 07:50:38;;;;;;;16.77;7.78;;;;;;;;;;5048004;28;20049;-67
2022/05/31 07:53:04;;;;;;;;;;;;;;;;;;5048338;28;20175;-78
2022/05/31 07:55:30;;;;;;;18.20;8.60;;;;;;;;;;5046063;28;20343;-66
2022/05/31 08:00:41;;;;;;;19.88;7.10;;;;;;;;;;5048025;28;20468;-68
2022/05/31 08:03:08;;;;;;;;;;;;;;;;;;5047564;28;20391;-64
2022/05/31 08:05:37;;;;;;;14.55;6.45;;;;;;;;;;5047656;28;19921;-72
2022/05/31 08:08:03;;;;;;;15.43;6.68;;;;;;;;;;5047944;28;20447;-75
2022/05/31 08:10:30;;;;;;;14.68;6.78;;;;;;;;;;5046092;28;20437;-75
2022/05/31 08:12:56;;;;;;;17.60;6.63;;;;;;;;;;5046073;28;20144;-75
2022/05/31 08:15:22;;;;;;;12.85;6.43;;;;;;;;;;5047580;28;20078;-73
2022/05/31 08:17:48;;;;;;;14.75;5.88;;;;;;;;;;5047643;28;20045;-64
2022/05/31 08:20:16;;;;;;;12.65;5.93;;;;;;;;;;5047391;28;20392;-83
2022/05/31 08:22:43;;;;;;;13.25;6.40;;;;;;;;;;5045812;28;20120;-67
2022/05/31 08:25:09;;;;;;;17.55;7.30;;;;;;;;;;5047877;28;20060;-68
2022/05/31 08:27:36;;;;;;;14.70;5.70;;;;;;;;;;5047980;28;20047;-68
2022/05/31 08:30:03;;;;;;;11.52;5.60;;;;;;;;;;5047628;28;20049;-67
2022/05/31 08:32:30;;;;;;;13.52;6.50;;;;;;;;;;5047482;28;20059;-65
2022/05/31 08:34:56;;;;;;;;;;;;;;;;;;5047237;28;20115;-66
2022/05/31 08:37:22;;;;;;;12.23;6.03;;;;;;;;;;5046959;28;19940;-65
2022/05/31 08:39:48;;;;;;;14.48;6.38;;;;;;;;;;5046709;28;20041;-68
2022/05/31 08:42:15;;;;;;;13.23;6.78;;;;;;;;;;5046781;28;20048;-66
2022/05/31 08:44:54;;;;;;;15.23;6.10;;;;;;;;;;5046894;28;20404;-67
2022/05/31 08:47:23;;;;;;;12.88;6.10;;;;;;;;;;5047037;28;20219;-66
2022/05/31 08:52:37;;;;;;;15.43;5.78;;;;;;;;;;5046892;28;20049;-66
2022/05/31 08:57:50;;;;;;;;;;;;;;;;;;5047468;28;20048;-65
2022/05/31 09:00:32;;;;;;;14.10;5.78;;;;;;;;;;5046981;28;19921;-65
2022/05/31 09:03:01;;;;;;;12.55;6.15;;;;;;;;;;5046965;28;20178;-70
2022/05/31 09:05:29;;;;;;;14.65;5.68;;;;;;;;;;5046621;28;20487;-63
2022/05/31 09:07:58;;;;;;;14.43;5.88;;;;;;;;;;5045168;28;20437;-62
2022/05/31 09:10:24;;;;;;;17.25;5.70;;;;;;;;;;5046945;28;20136;-63
2022/05/31 09:12:53;;;;;;;15.20;5.72;;;;;;;;;;5046449;28;20174;-62
2022/05/31 09:15:31;;;;;;;10.90;5.20;;;;;;;;;;5046878;28;20476;-63
2022/05/31 09:18:03;;;;;;;13.40;6.15;;;;;;;;;;5047206;28;20471;-61
2022/05/31 09:20:34;;;;;;;11.45;5.57;;;;;;;;;;5046552;28;20128;-63
2022/05/31 09:23:01;;;;;;;11.10;4.88;;;;;;;;;;5045296;28;20128;-63
2022/05/31 09:25:27;;;;;;;12.98;4.97;;;;;;;;;;5045357;28;20072;-63
2022/05/31 09:27:53;;;;;;;15.52;4.80;;;;;;;;;;5050543;28;20467;-68
2022/05/31 09:30:24;;;;;;;11.30;4.03;;;;;;;;;;5049081;28;20128;-69
2022/05/31 09:33:08;;;;;;;9.55;3.90;;;;;;;;;;5050683;28;20053;-74
2022/05/31 09:35:34;;;;;;;12.73;4.60;;;;;;;;;;5050596;28;20405;-66
2022/05/31 09:38:15;;;;;;;14.70;4.93;;;;;;;;;;5050325;28;20092;-65
2022/05/31 09:41:14;;;;;;;16.20;4.50;;;;;;;;;;5048887;28;20060;-66
2022/05/31 09:44:02;;;;;;;12.77;4.70;;;;;;;;;;5037174;28;20146;-66
2022/05/31 09:46:38;;;;;;;13.13;4.90;;;;;;;;;;5049031;28;20082;-65
2022/05/31 09:49:19;;;;;;;21.17;11.30;;;;;;;;;;5050420;28;20041;-68
2022/05/31 09:51:45;;;;;;;12.05;5.05;;;;;;;;;;5049811;28;20071;-65
2022/05/31 09:57:05;;;;;;;13.18;4.90;;;;;;;;;;5050215;28;20472;-69
2022/05/31 09:59:32;;;;;;;10.75;4.32;;;;;;;;;;5049924;28;20395;-66
2022/05/31 10:02:18;;;;;;;13.18;4.60;;;;;;;;;;5050044;28;20509;-76
2022/05/31 10:04:45;;;;;;;11.02;4.22;;;;;;;;;;5045599;28;20074;-67
2022/05/31 10:07:11;;;;;;;12.60;5.53;;;;;;;;;;5048585;28;20143;-67
2022/05/31 10:09:37;;;;;;;14.73;5.05;;;;;;;;;;5049819;28;20156;-63
2022/05/31 10:12:13;;;;;;;24.00;5.55;;;;;;;;;;5049910;28;20519;-67
2022/05/31 10:14:58;;;;;;;13.88;4.68;;;;;;;;;;5049905;28;20048;-83
2022/05/31 10:17:43;;;;;;;13.93;4.60;;;;;;;;;;5049793;28;20136;-68
2022/05/31 10:20:12;;;;;;;14.05;4.90;;;;;;;;;;5050010;28;20151;-71
2022/05/31 10:22:40;;;;;;;11.73;4.40;;;;;;;;;;5049678;28;20114;-65
2022/05/31 10:25:22;;;;;;;11.70;4.57;;;;;;;;;;5049886;28;20065;-79
2022/05/31 10:27:49;;;;;;;12.55;4.40;;;;;;;;;;5048327;28;20144;-69
2022/05/31 10:30:22;;;;;;;14.38;5.40;;;;;;;;;;5049970;28;20082;-67
2022/05/31 10:32:48;;;;;;;11.45;4.15;;;;;;;;;;5049958;28;20391;-67
2022/05/31 10:35:14;;;;;;;12.55;5.18;;;;;;;;;;5049776;28;20083;-65
2022/05/31 10:37:55;;;;;;;11.77;4.80;;;;;;;;;;5048636;28;20397;-64
2022/05/31 10:40:24;;;;;;;14.20;4.97;;;;;;;;;;5048126;28;20599;-66
2022/05/31 10:42:54;;;;;;;13.38;4.90;;;;;;;;;;5049098;28;20059;-64
2022/05/31 10:45:27;;;;;;;13.65;5.35;;;;;;;;;;5049235;28;20057;-65
2022/05/31 10:47:57;;;;;;;11.63;4.47;;;;;;;;;;5049184;28;20106;-67
2022/05/31 10:50:33;;;;;;;12.40;5.18;;;;;;;;;;5049269;28;20478;-66
2022/05/31 10:53:12;;;;;;;15.88;6.05;;;;;;;;;;5049079;28;20071;-71
2022/05/31 10:55:50;;;;;;;12.13;4.97;;;;;;;;;;5049138;28;20049;-65
2022/05/31 10:58:23;;;;;;;12.65;4.78;;;;;;;;;;5047613;28;20080;-65
2022/05/31 11:01:15;;;;;;;18.13;5.25;;;;;;;;;;5048373;28;20045;-67
2022/05/31 11:03:55;;;;;;;13.90;4.18;;;;;;;;;;5047513;28;20101;-67
2022/05/31 11:06:30;;;;;;;10.77;4.55;;;;;;;;;;5047671;28;20053;-67
2022/05/31 11:11:55;;;;;;;13.93;5.05;;;;;;;;;;5048741;28;20168;-65
2022/05/31 11:14:28;;;;;;;11.45;5.03;;;;;;;;;;5048697;28;20053;-67
2022/05/31 11:17:23;;;;;;;13.35;5.10;;;;;;;;;;5048471;28;20084;-67
2022/05/31 11:20:05;;;;;;;12.15;4.65;;;;;;;;;;5047377;28;20341;-66
2022/05/31 11:22:50;;;;;;;15.50;5.10;;;;;;;;;;5048158;28;20386;-69
2022/05/31 11:25:37;;;;;;;12.25;5.50;;;;;;;;;;5048842;28;20071;-66
2022/05/31 11:28:21;;;;;;;11.05;4.38;;;;;;;;;;5048964;28;20044;-67
2022/05/31 11:30:59;;;;;;;11.55;4.30;;;;;;;;;;5048267;28;20068;-65
2022/05/31 11:33:38;;;;;;;12.25;4.80;;;;;;;;;;5048410;28;20045;-67
2022/05/31 11:36:23;;;;;;;12.18;4.70;;;;;;;;;;5048231;28;20052;-66
2022/05/31 11:39:07;;;;;;;12.40;4.60;;;;;;;;;;5048330;28;20445;-65
2022/05/31 11:41:47;;;;;;;10.57;4.30;;;;;;;;;;5047761;28;20353;-63
2022/05/31 11:44:13;;;;;;;11.68;4.80;;;;;;;;;;5048309;28;20057;-64
2022/05/31 11:46:43;;;;;;;11.75;4.30;;;;;;;;;;5047895;28;20053;-67
2022/05/31 11:49:13;;;;;;;13.82;5.05;;;;;;;;;;5048107;28;20059;-66
2022/05/31 11:51:46;;;;;;;21.77;5.10;;;;;;;;;;5046633;28;20144;-79
2022/05/31 11:54:18;;;;;;;10.45;4.50;;;;;;;;;;5029629;28;20457;-74
2022/05/31 11:56:44;;;;;;;12.05;4.78;;;;;;;;;;5046626;28;20056;-80
2022/05/31 11:59:31;;;;;;;14.10;4.97;;;;;;;;;;5048140;28;20219;-75
2022/05/31 12:02:03;;;;;;;14.40;5.43;;;;;;;;;;5047142;28;20129;-72
2022/05/31 12:04:34;;;;;;;11.00;4.60;;;;;;;;;;5047903;28;20068;-73
2022/05/31 12:07:19;;;;;;;10.48;4.35;;;;;;;;;;5047809;28;20369;-71
2022/05/31 12:09:47;;;;;;;13.93;4.97;;;;;;;;;;5047590;28;20045;-69
2022/05/31 12:12:18;;;;;;;8.98;3.80;;;;;;;;;;5047525;28;20041;-72
2022/05/31 12:14:48;;;;;;;13.77;4.55;;;;;;;;;;5047336;28;20049;-65
2022/05/31 12:17:16;;;;;;;12.75;4.57;;;;;;;;;;5046814;28;20055;-67
2022/05/31 12:19:52;;;;;;;11.60;4.40;;;;;;;;;;5045859;28;20355;-70
2022/05/31 12:22:22;;;;;;;9.50;4.05;;;;;;;;;;5047234;28;20234;-66
2022/05/31 12:24:54;;;;;;;12.00;5.03;;;;;;;;;;5047077;28;20461;-65
2022/05/31 12:27:23;;;;;;;11.48;4.03;;;;;;;;;;5047092;28;20063;-66
2022/05/31 12:29:55;;;;;;;9.95;4.25;;;;;;;;;;5047097;28;20443;-64
2022/05/31 12:32:21;;;;;;;10.82;4.55;;;;;;;;;;5028689;28;20053;-65
2022/05/31 12:34:48;;;;;;;11.88;4.25;;;;;;;;;;5046921;28;20059;-64
2022/05/31 12:37:15;;;;;;;12.88;4.40;;;;;;;;;;5047406;28;20114;-64
2022/05/31 12:39:42;;;;;;;11.23;4.43;;;;;;;;;;5046995;28;20044;-65
2022/05/31 12:42:14;;;;;;;13.30;5.10;;;;;;;;;;5046773;28;20059;-64
2022/05/31 12:44:45;;;;;;;14.27;5.40;;;;;;;;;;5047101;28;20114;-64
2022/05/31 12:47:30;;;;;;;15.77;5.32;;;;;;;;;;5045494;28;20053;-65
2022/05/31 12:50:09;;;;;;;12.05;5.13;;;;;;;;;;5046757;28;20131;-66
2022/05/31 12:55:36;;;;;;;11.10;4.38;;;;;;;;;;5046836;28;20049;-64
2022/05/31 13:00:48;;;;;;;17.88;5.70;;;;;;;;;;5045992;28;20194;-64
2022/05/31 13:03:36;;;;;;;11.68;4.80;;;;;;;;;;5046645;28;20438;-66
2022/05/31 13:06:05;;;;;;;12.40;5.18;;;;;;;;;;5047015;28;20391;-65
2022/05/31 13:08:52;;;;;;;12.57;5.10;;;;;;;;;;5045133;28;20056;-66
2022/05/31 13:19:38;;;;;;;11.00;4.60;;;;;;;;;;5046421;28;20056;-65
2022/05/31 13:22:13;;;;;;;9.35;4.07;;;;;;;;;;5044859;28;20426;-65
2022/05/31 13:24:43;;;;;;;11.95;4.85;;;;;;;;;;5046384;28;20123;-65
2022/05/31 13:27:09;;;;;;;12.85;4.93;;;;;;;;;;5046712;28;20059;-64
2022/05/31 13:29:35;;;;;;;11.70;4.40;;;;;;;;;;5046634;28;20044;-64
2022/05/31 13:32:02;;;;;;;13.15;4.63;;;;;;;;;;5046306;28;20041;-64
2022/05/31 13:34:33;;;;;;;12.88;4.60;;;;;;;;;;5044752;28;20162;-65
2022/05/31 13:37:01;;;;;;;11.77;4.65;;;;;;;;;;5046130;28;20049;-65
2022/05/31 13:39:28;;;;;;;12.48;4.70;;;;;;;;;;5046335;28;20183;-66
2022/05/31 13:41:59;;;;;;;11.23;5.00;;;;;;;;;;5046312;28;20045;-64
2022/05/31 13:44:35;;;;;;;11.95;4.22;;;;;;;;;;5046317;28;20426;-66
2022/05/31 13:47:03;;;;;;;12.02;4.47;;;;;;;;;;5045984;28;20125;-64
2022/05/31 13:49:37;;;;;;;14.18;4.60;;;;;;;;;;5046265;28;20044;-65
2022/05/31 13:52:05;;;;;;;15.65;4.82;;;;;;;;;;5046068;28;20037;-64
2022/05/31 13:54:38;;;;;;;13.48;5.20;;;;;;;;;;5046578;28;20045;-65
2022/05/31 13:57:05;;;;;;;20.23;5.20;;;;;;;;;;5046214;28;20163;-65
2022/05/31 13:59:31;;;;;;;11.60;3.88;;;;;;;;;;5044877;28;20250;-65
2022/05/31 14:01:57;;;;;;;12.02;3.80;;;;;;;;;;5046309;28;20181;-65
2022/05/31 14:04:23;;;;;;;;;;;;;;;;;;5044905;28;20097;-65
2022/05/31 14:06:50;;;;;;;10.48;4.38;;;;;;;;;;5046472;28;19977;-65
2022/05/31 14:09:30;;;;;;;12.65;5.22;;;;;;;;;;5044466;28;20045;-65
2022/05/31 14:11:58;;;;;;;15.40;5.40;;;;;;;;;;5046696;28;20060;-66
2022/05/31 14:14:43;;;;;;;12.77;4.85;;;;;;;;;;5049739;28;20065;-65
2022/05/31 14:17:11;;;;;;;12.95;4.70;;;;;;;;;;5049955;28;20117;-65
2022/05/31 14:19:43;;;;;;;12.23;5.10;;;;;;;;;;5049938;28;20089;-67
2022/05/31 14:22:30;;;;;;;14.43;6.35;;;;;;;;;;5049741;28;20099;-68
2022/05/31 14:24:57;;;;;;;14.70;5.75;;;;;;;;;;5049634;28;20069;-66
2022/05/31 14:27:26;;;;;;;13.50;6.10;;;;;;;;;;5049893;28;20453;-65
2022/05/31 14:30:05;;;;;;;12.93;6.45;;;;;;;;;;5049342;28;20045;-65
2022/05/31 14:32:35;;;;;;;13.00;6.70;;;;;;;;;;5049736;28;20151;-65
2022/05/31 14:35:01;;;;;;;15.38;7.38;;;;;;;;;;5049802;28;20198;-65
2022/05/31 14:37:29;;;;;;;17.08;7.95;;;;;;;;;;5049158;28;20342;-65
2022/05/31 14:40:03;;;;;;;14.32;8.05;;;;;;;;;;5050026;28;20053;-68
2022/05/31 14:42:35;;;;;;;17.55;8.13;;;;;;;;;;5049542;28;20037;-66
2022/05/31 14:45:02;;;;;;;16.45;7.70;;;;;;;;;;5048187;28;20183;-65
2022/05/31 14:47:30;;;;;;;17.35;8.85;;;;;;;;;;5048473;28;20052;-66
2022/05/31 14:50:05;;;;;;;16.50;8.48;;;;;;;;;;5049696;28;20128;-68
2022/05/31 14:52:49;;;;;;;16.02;7.90;;;;;;;;;;5049697;28;20128;-66
2022/05/31 14:55:21;;;;;;;17.65;8.77;;;;;;;;;;5049939;28;20063;-65
2022/05/31 15:00:50;;;;;;;18.55;8.65;;;;;;;;;;5049435;28;20155;-69
2022/05/31 15:03:23;;;;;;;15.43;8.88;;;;;;;;;;5049534;28;20045;-68
2022/05/31 15:05:56;;;;;;;18.42;9.10;;;;;;;;;;5048855;28;20049;-68
2022/05/31 15:08:29;;;;;;;17.13;8.52;;;;;;;;;;5049634;28;20086;-66
2022/05/31 15:18:56;;;;;;;19.50;10.52;;;;;;;;;;5050568;28;20131;-65
2022/05/31 15:19:21;;;;;;;14.23;8.32;;;;;;;;;;5042556;28;20057;-64
2022/05/31 15:21:48;;;;;;;19.88;9.13;;;;;;;;;;5049127;28;20124;-65
2022/05/31 15:24:35;;;;;;;19.15;8.98;;;;;;;;;;5048268;28;20049;-64
2022/05/31 15:27:02;;;;;;;16.90;8.93;;;;;;;;;;5049181;28;20136;-70
2022/05/31 15:29:28;;;;;;;19.17;8.85;;;;;;;;;;5047543;28;20119;-65
2022/05/31 15:31:54;;;;;;;21.75;8.77;;;;;;;;;;5047065;28;20048;-64
2022/05/31 15:34:20;;;;;;;21.38;9.10;;;;;;;;;;5048620;28;20446;-65
2022/05/31 15:36:46;;;;;;;17.77;9.20;;;;;;;;;;5048713;28;20080;-66